Time;durP1;ratioP1;P1;durP2;ratioP2;P2;SDS_P1;SDS_P2;PMS_P1;PMS_P2;Temp;Humidity;BMP_temperature;BMP_pressure;BME280_temperature;BME280_humidity;BME280_pressure;Samples;Min_cycle;Max_cycle;Signal;HPM_P1;HPM_P2
2024/04/08 00:01:41;;;;;;;6.03;2.17;;;14.90;99.90;;;;;;5438283;26;20409;-62
2024/04/08 00:04:27;;;;;;;9.52;2.60;;;14.80;99.90;;;;;;5444949;26;20077;-62
2024/04/08 00:07:12;;;;;;;7.53;2.30;;;14.70;99.90;;;;;;5426568;26;20014;-62
2024/04/08 00:09:58;;;;;;;7.38;2.50;;;14.70;99.90;;;;;;5426851;26;20072;-63
2024/04/08 00:12:45;;;;;;;10.23;2.42;;;14.60;99.90;;;;;;5421929;26;20474;-62
2024/04/08 00:15:31;;;;;;;10.88;2.30;;;14.60;99.90;;;;;;5429886;26;20000;-63
2024/04/08 00:18:17;;;;;;;12.40;3.20;;;14.60;99.90;;;;;;5430942;26;20000;-63
2024/04/08 00:21:04;;;;;;;9.98;2.58;;;14.50;99.90;;;;;;5421953;26;19996;-63
2024/04/08 00:23:49;;;;;;;8.32;2.55;;;14.50;99.90;;;;;;5408828;26;20009;-63
2024/04/08 00:26:36;;;;;;;8.90;2.33;;;14.40;99.90;;;;;;5424927;26;19999;-63
2024/04/08 00:29:21;;;;;;;7.27;2.47;;;14.40;99.90;;;;;;5418116;26;19996;-63
2024/04/08 00:32:07;;;;;;;9.00;2.67;;;14.30;99.90;;;;;;5406019;26;20517;-63
2024/04/08 00:34:53;;;;;;;9.48;2.60;;;14.30;99.90;;;;;;5410561;26;20749;-63
2024/04/08 00:37:39;;;;;;;8.70;2.70;;;14.20;99.90;;;;;;5376485;26;20021;-63
2024/04/08 00:40:25;;;;;;;9.02;2.20;;;14.20;99.90;;;;;;5387864;26;20054;-63
2024/04/08 00:43:10;;;;;;;6.38;2.50;;;14.20;99.90;;;;;;5408438;26;20003;-63
2024/04/08 00:45:59;;;;;;;8.48;2.28;;;14.10;99.90;;;;;;5418082;26;20007;-63
2024/04/08 00:48:47;;;;;;;14.65;2.35;;;14.10;99.90;;;;;;5413379;26;20010;-63
2024/04/08 00:51:34;;;;;;;6.07;1.98;;;14.00;99.90;;;;;;5415041;26;20023;-63
2024/04/08 00:54:19;;;;;;;7.38;2.60;;;14.00;99.90;;;;;;5429056;26;20042;-62
2024/04/08 00:57:08;;;;;;;13.15;2.47;;;13.90;99.90;;;;;;5397468;26;20432;-62
2024/04/08 00:59:54;;;;;;;5.32;1.90;;;13.90;99.90;;;;;;5432937;26;20002;-62
2024/04/08 01:02:40;;;;;;;8.20;2.40;;;13.90;99.90;;;;;;5409290;26;20014;-62
2024/04/08 01:05:26;;;;;;;6.30;1.93;;;13.80;99.90;;;;;;5385458;26;20076;-62
2024/04/08 01:08:12;;;;;;;7.68;2.47;;;13.70;99.90;;;;;;5406025;26;20269;-62
2024/04/08 01:10:59;;;;;;;5.28;2.00;;;13.70;99.90;;;;;;5404318;26;20437;-62
2024/04/08 01:13:45;;;;;;;8.65;1.70;;;13.70;99.90;;;;;;5407624;26;20349;-62
2024/04/08 01:16:31;;;;;;;4.80;2.13;;;13.70;99.90;;;;;;5406595;26;20015;-62
2024/04/08 01:19:23;;;;;;;9.15;2.38;;;13.60;99.90;;;;;;5405322;26;20262;-62
2024/04/08 01:22:10;;;;;;;9.35;3.13;;;13.60;99.90;;;;;;5400137;26;20004;-62
2024/04/08 01:24:58;;;;;;;8.10;2.47;;;13.50;99.90;;;;;;5395136;26;20004;-62
2024/04/08 01:27:43;;;;;;;5.15;1.85;;;13.50;99.90;;;;;;5405536;26;20010;-62
2024/04/08 01:30:30;;;;;;;9.60;2.40;;;13.50;99.90;;;;;;5397299;26;20023;-62
2024/04/08 01:33:18;;;;;;;10.87;2.43;;;13.50;99.90;;;;;;5368885;26;20000;-62
2024/04/08 01:36:04;;;;;;;8.52;2.55;;;13.30;99.90;;;;;;5366463;26;20230;-62
2024/04/08 01:38:50;;;;;;;11.52;3.20;;;13.20;99.90;;;;;;5370427;26;19993;-62
2024/04/08 01:41:36;;;;;;;7.47;2.40;;;13.20;99.90;;;;;;5364412;26;20055;-62
2024/04/08 01:44:22;;;;;;;10.20;2.72;;;13.10;99.90;;;;;;5367681;26;20008;-62
2024/04/08 01:47:08;;;;;;;8.10;2.17;;;13.00;99.90;;;;;;5368163;26;20101;-62
2024/04/08 01:49:54;;;;;;;9.02;2.80;;;12.90;99.90;;;;;;5363944;26;20016;-62
2024/04/08 01:52:58;;;;;;;7.75;2.83;;;13.00;99.90;;;;;;5369629;26;20001;-62
2024/04/08 01:55:43;;;;;;;9.18;2.72;;;12.90;99.90;;;;;;5367421;26;20273;-62
2024/04/08 01:58:29;;;;;;;13.40;2.50;;;12.90;99.90;;;;;;5368408;26;20027;-62
2024/04/08 02:01:15;;;;;;;6.03;2.22;;;13.00;99.90;;;;;;5365923;26;19992;-62
2024/04/08 02:04:01;;;;;;;6.82;2.13;;;13.00;99.90;;;;;;5367718;26;20032;-62
2024/04/08 02:06:47;;;;;;;8.30;2.33;;;13.00;99.90;;;;;;5367452;26;20711;-62
2024/04/08 02:09:32;;;;;;;6.57;2.60;;;13.10;99.90;;;;;;5367820;26;20556;-62
2024/04/08 02:12:18;;;;;;;10.15;2.78;;;13.10;99.90;;;;;;5369623;26;20414;-62
2024/04/08 02:15:05;;;;;;;7.97;2.50;;;13.10;99.90;;;;;;5369981;26;20000;-62
2024/04/08 02:17:51;;;;;;;11.38;2.85;;;13.10;99.90;;;;;;5370347;26;20011;-62
2024/04/08 02:20:40;;;;;;;12.35;2.58;;;13.10;99.90;;;;;;5363457;26;20020;-62
2024/04/08 02:23:26;;;;;;;9.20;3.28;;;13.00;99.90;;;;;;5366602;26;19996;-62
2024/04/08 02:26:12;;;;;;;6.63;2.20;;;12.90;99.90;;;;;;5364953;26;20435;-62
2024/04/08 02:28:58;;;;;;;12.50;2.20;;;12.90;99.90;;;;;;5369381;26;20039;-62
2024/04/08 02:31:45;;;;;;;8.02;2.00;;;12.90;99.90;;;;;;5365550;26;19996;-62
2024/04/08 02:34:31;;;;;;;5.05;2.22;;;12.90;99.90;;;;;;5371403;26;20020;-62
2024/04/08 02:37:17;;;;;;;5.55;2.15;;;12.90;99.90;;;;;;5362115;26;20055;-62
2024/04/08 02:40:04;;;;;;;7.75;2.20;;;12.90;99.90;;;;;;5364934;26;20000;-62
2024/04/08 02:42:50;;;;;;;9.98;2.15;;;12.90;99.90;;;;;;5369692;26;20011;-62
2024/04/08 02:45:36;;;;;;;6.88;2.10;;;12.90;99.90;;;;;;5366297;26;20004;-62
2024/04/08 02:48:23;;;;;;;9.93;2.08;;;12.90;99.90;;;;;;5368583;26;20461;-62
2024/04/08 02:51:09;;;;;;;8.02;2.60;;;12.90;99.90;;;;;;5364667;26;20007;-62
2024/04/08 02:53:55;;;;;;;13.23;2.60;;;12.90;99.90;;;;;;5369715;26;20453;-62
2024/04/08 02:56:41;;;;;;;10.40;2.72;;;12.90;99.90;;;;;;5365167;26;20073;-62
2024/04/08 02:59:27;;;;;;;13.05;3.00;;;12.90;99.90;;;;;;5367473;26;20004;-62
2024/04/08 03:02:13;;;;;;;8.55;2.33;;;12.90;99.90;;;;;;5366542;26;20000;-62
2024/04/08 03:04:59;;;;;;;6.07;2.00;;;12.80;99.90;;;;;;5365619;26;20417;-62
2024/04/08 03:07:44;;;;;;;7.22;2.85;;;12.80;99.90;;;;;;5366725;26;20667;-62
2024/04/08 03:10:31;;;;;;;8.50;2.25;;;12.90;99.90;;;;;;5363056;26;20004;-62
2024/04/08 03:13:17;;;;;;;8.18;2.33;;;12.80;99.90;;;;;;5366937;26;20246;-62
2024/04/08 03:16:04;;;;;;;10.00;2.30;;;12.80;99.90;;;;;;5365270;26;20103;-62
2024/04/08 03:18:51;;;;;;;10.02;2.42;;;12.80;99.90;;;;;;5369589;26;20582;-62
2024/04/08 03:21:37;;;;;;;4.63;2.13;;;12.70;99.90;;;;;;5363277;26;20008;-62
2024/04/08 03:24:22;;;;;;;11.48;2.88;;;12.70;99.90;;;;;;5364868;26;20001;-62
2024/04/08 03:27:08;;;;;;;6.30;2.90;;;12.70;99.90;;;;;;5366026;26;20012;-62
2024/04/08 03:29:54;;;;;;;9.95;2.63;;;12.70;99.90;;;;;;5366987;26;20024;-62
2024/04/08 03:32:40;;;;;;;7.23;2.17;;;12.60;99.90;;;;;;5401447;26;19995;-62
2024/04/08 03:35:27;;;;;;;12.98;2.40;;;12.60;99.90;;;;;;5400029;26;20005;-62
2024/04/08 03:38:14;;;;;;;8.82;2.28;;;12.60;99.90;;;;;;5413163;26;20706;-62
2024/04/08 03:41:02;;;;;;;9.57;2.20;;;12.60;99.90;;;;;;5396947;26;19999;-62
2024/04/08 03:43:48;;;;;;;5.97;1.98;;;12.60;99.90;;;;;;5399362;26;20383;-62
2024/04/08 03:46:33;;;;;;;6.28;2.00;;;12.60;99.90;;;;;;5401481;26;19999;-62
2024/04/08 03:49:19;;;;;;;8.70;2.58;;;12.50;99.90;;;;;;5408396;26;20008;-62
2024/04/08 03:52:05;;;;;;;5.22;2.28;;;12.50;99.90;;;;;;5397058;26;20461;-62
2024/04/08 03:54:51;;;;;;;9.98;2.45;;;12.40;99.90;;;;;;5401384;26;20018;-62
2024/04/08 03:57:37;;;;;;;7.67;2.30;;;12.40;99.90;;;;;;5403764;26;20054;-62
2024/04/08 04:00:23;;;;;;;5.90;1.80;;;12.30;99.90;;;;;;5381442;26;20514;-62
2024/04/08 04:03:09;;;;;;;7.88;2.17;;;12.30;99.90;;;;;;5406310;26;20490;-62
2024/04/08 04:05:55;;;;;;;5.82;2.17;;;12.20;99.90;;;;;;5399234;26;20007;-62
2024/04/08 04:08:41;;;;;;;8.30;2.65;;;12.20;99.90;;;;;;5381141;26;20035;-62
2024/04/08 04:11:27;;;;;;;10.27;3.15;;;12.10;99.90;;;;;;5402275;26;20044;-62
2024/04/08 04:14:13;;;;;;;8.75;3.30;;;12.10;99.90;;;;;;5401117;26;20004;-62
2024/04/08 04:16:59;;;;;;;8.68;3.42;;;12.10;99.90;;;;;;5407091;26;19999;-62
2024/04/08 04:19:45;;;;;;;12.07;2.95;;;12.00;99.90;;;;;;5404533;26;19992;-62
2024/04/08 04:22:31;;;;;;;7.97;2.63;;;12.10;99.90;;;;;;5402767;26;20004;-62
2024/04/08 04:25:17;;;;;;;11.95;3.08;;;12.00;99.90;;;;;;5406734;26;20000;-62
2024/04/08 04:28:04;;;;;;;6.35;2.63;;;12.00;99.90;;;;;;5402423;26;20011;-62
2024/04/08 04:30:54;;;;;;;7.88;2.88;;;12.10;99.90;;;;;;5397058;26;19999;-62
2024/04/08 04:33:40;;;;;;;9.68;3.05;;;12.10;99.90;;;;;;5403908;26;19995;-62
2024/04/08 04:36:26;;;;;;;14.90;3.15;;;12.00;99.90;;;;;;5403574;26;20081;-62
2024/04/08 04:39:12;;;;;;;9.07;2.90;;;11.90;99.90;;;;;;5398293;26;20630;-62
2024/04/08 04:41:58;;;;;;;9.53;2.70;;;11.80;99.90;;;;;;5401830;26;20009;-62
2024/04/08 04:44:43;;;;;;;8.98;2.60;;;11.80;99.90;;;;;;5402455;26;19995;-62
2024/04/08 04:47:29;;;;;;;8.45;2.45;;;11.90;99.90;;;;;;5396477;26;20007;-62
2024/04/08 04:50:15;;;;;;;9.15;2.83;;;11.90;99.90;;;;;;5403388;26;19996;-62
2024/04/08 04:53:01;;;;;;;7.38;2.78;;;11.80;99.90;;;;;;5404836;26;20370;-62
2024/04/08 04:55:53;;;;;;;9.55;2.95;;;11.70;99.90;;;;;;5402456;26;20007;-62
2024/04/08 04:58:39;;;;;;;5.97;2.20;;;11.70;99.90;;;;;;5404099;26;19996;-62
2024/04/08 05:01:25;;;;;;;12.35;2.92;;;11.60;99.90;;;;;;5400767;26;20094;-62
2024/04/08 05:04:11;;;;;;;7.57;2.75;;;11.60;99.90;;;;;;5405835;26;20039;-62
2024/04/08 05:06:56;;;;;;;7.20;3.15;;;11.60;99.90;;;;;;5404070;26;20537;-62
2024/04/08 05:09:42;;;;;;;6.20;2.55;;;11.50;99.90;;;;;;5401196;26;20006;-62
2024/04/08 05:12:28;;;;;;;7.30;2.38;;;11.60;99.90;;;;;;5403984;26;20010;-62
2024/04/08 05:15:14;;;;;;;8.35;2.22;;;11.50;99.90;;;;;;5403766;26;20472;-62
2024/04/08 05:18:00;;;;;;;8.07;1.95;;;11.50;99.90;;;;;;5398216;26;20008;-62
2024/04/08 05:20:46;;;;;;;6.75;3.00;;;11.60;99.90;;;;;;5401569;26;20492;-62
2024/04/08 05:23:32;;;;;;;6.47;2.45;;;11.70;99.90;;;;;;5402735;26;20620;-62
2024/04/08 05:26:18;;;;;;;10.40;2.70;;;11.70;99.90;;;;;;5403565;26;19992;-62
2024/04/08 05:29:03;;;;;;;7.75;2.10;;;11.90;99.90;;;;;;5404462;26;20010;-62
2024/04/08 05:31:52;;;;;;;6.95;2.58;;;12.10;99.90;;;;;;5400248;26;20353;-62
2024/04/08 05:34:39;;;;;;;12.25;2.60;;;12.30;99.90;;;;;;5406218;26;19995;-62
2024/04/08 05:37:25;;;;;;;6.88;2.50;;;12.40;99.90;;;;;;5401530;26;20006;-62
2024/04/08 05:40:13;;;;;;;7.53;2.53;;;12.40;99.90;;;;;;5402316;26;19995;-62
2024/04/08 05:43:00;;;;;;;6.00;2.40;;;12.70;99.90;;;;;;5402233;26;20018;-62
2024/04/08 05:45:48;;;;;;;6.32;1.83;;;12.90;99.90;;;;;;5398623;26;20336;-62
2024/04/08 05:48:34;;;;;;;6.10;1.92;;;13.10;99.90;;;;;;5406250;26;19998;-62
2024/04/08 05:51:22;;;;;;;15.15;2.88;;;13.20;99.90;;;;;;5400600;26;20036;-62
2024/04/08 05:54:08;;;;;;;7.68;2.97;;;13.30;99.90;;;;;;5406913;26;20003;-62
2024/04/08 05:56:54;;;;;;;8.13;1.92;;;13.50;99.90;;;;;;5407428;26;20406;-62
2024/04/08 05:59:39;;;;;;;6.82;2.22;;;13.70;99.90;;;;;;5376520;26;20035;-62
2024/04/08 06:02:26;;;;;;;7.43;2.15;;;13.70;99.90;;;;;;5402111;26;20003;-62
2024/04/08 06:05:12;;;;;;;6.40;2.38;;;13.70;99.90;;;;;;5402779;26;19992;-62
2024/04/08 06:07:58;;;;;;;4.10;1.60;;;14.20;99.90;;;;;;5409037;26;20965;-62
2024/04/08 06:10:50;;;;;;;9.03;2.47;;;14.50;99.90;;;;;;5401642;26;19992;-62
2024/04/08 06:13:36;;;;;;;8.60;2.42;;;14.70;99.90;;;;;;5402016;26;20007;-63
2024/04/08 06:16:22;;;;;;;4.70;1.92;;;15.70;99.90;;;;;;5399576;26;19992;-63
2024/04/08 06:19:08;;;;;;;5.65;1.80;;;16.70;99.90;;;;;;5403639;26;19995;-63
2024/04/08 06:21:54;;;;;;;7.63;1.60;;;17.50;99.90;;;;;;5380602;26;20000;-63
2024/04/08 06:24:41;;;;;;;6.20;1.85;;;17.50;99.90;;;;;;5403630;26;19995;-63
2024/04/08 06:27:27;;;;;;;8.05;2.10;;;17.30;99.90;;;;;;5396684;26;19991;-63
2024/04/08 06:30:13;;;;;;;6.03;1.70;;;17.60;99.90;;;;;;5400297;26;20076;-59
2024/04/08 06:32:59;;;;;;;4.57;1.55;;;18.30;99.90;;;;;;5401266;26;19995;-62
2024/04/08 06:35:45;;;;;;;12.27;1.98;;;18.60;99.90;;;;;;5404157;26;20838;-62
2024/04/08 06:38:31;;;;;;;5.50;1.73;;;18.40;99.90;;;;;;5400569;26;20795;-61
2024/04/08 06:41:18;;;;;;;10.15;1.95;;;18.50;99.90;;;;;;5400745;26;19999;-62
2024/04/08 06:44:04;;;;;;;7.03;1.65;;;18.80;99.90;;;;;;5405560;26;20012;-62
2024/04/08 06:46:50;;;;;;;17.58;2.35;;;19.10;99.90;;;;;;5402280;26;20010;-61
2024/04/08 06:49:36;;;;;;;9.52;1.63;;;18.80;99.90;;;;;;5403228;26;20006;-64
2024/04/08 06:52:22;;;;;;;10.18;2.65;;;18.70;99.90;;;;;;5402459;26;19999;-62
2024/04/08 06:55:08;;;;;;;9.65;2.08;;;18.50;99.90;;;;;;5403042;26;20019;-62
2024/04/08 06:57:54;;;;;;;9.67;2.03;;;18.30;99.90;;;;;;5402174;26;20000;-63
2024/04/08 07:00:39;;;;;;;10.85;2.80;;;18.60;99.90;;;;;;5374792;26;20039;-64
2024/04/08 07:03:25;;;;;;;14.88;2.53;;;19.30;99.90;;;;;;5404707;26;20525;-64
2024/04/08 07:06:11;;;;;;;6.93;2.00;;;19.70;99.90;;;;;;5402752;26;20821;-63
2024/04/08 07:08:57;;;;;;;9.88;2.17;;;20.50;99.90;;;;;;5399963;26;20025;-63
2024/04/08 07:11:43;;;;;;;12.05;2.22;;;20.80;99.90;;;;;;5399806;26;19999;-63
2024/04/08 07:14:29;;;;;;;8.45;2.38;;;20.30;99.90;;;;;;5404344;26;20011;-63
2024/04/08 07:17:14;;;;;;;14.70;2.53;;;20.00;99.90;;;;;;5397223;26;19995;-64
2024/04/08 07:20:00;;;;;;;12.48;3.13;;;20.00;99.90;;;;;;5402286;26;20005;-63
2024/04/08 07:22:46;;;;;;;12.30;2.33;;;19.90;99.90;;;;;;5400308;26;20003;-63
2024/04/08 07:25:32;;;;;;;12.90;2.35;;;20.00;99.90;;;;;;5401823;26;20053;-63
2024/04/08 07:28:18;;;;;;;9.90;2.33;;;19.60;99.90;;;;;;5405834;26;20047;-63
2024/04/08 07:31:04;;;;;;;12.88;2.25;;;19.30;99.90;;;;;;5402520;26;20000;-65
2024/04/08 07:33:49;;;;;;;16.85;2.33;;;19.20;99.90;;;;;;5404840;26;20018;-63
2024/04/08 07:36:35;;;;;;;15.15;2.20;;;19.30;99.90;;;;;;5396110;26;20004;-63
2024/04/08 07:39:21;;;;;;;10.55;2.10;;;19.50;99.90;;;;;;5404484;26;20802;-63
2024/04/08 07:42:07;;;;;;;9.60;2.33;;;19.50;99.90;;;;;;5402656;26;20011;-65
2024/04/08 07:44:53;;;;;;;10.23;2.38;;;20.00;99.90;;;;;;5403887;26;20747;-63
2024/04/08 07:47:40;;;;;;;15.00;2.75;;;20.70;99.90;;;;;;5404594;26;20101;-64
2024/04/08 07:50:26;;;;;;;12.63;2.80;;;21.10;99.90;;;;;;5405015;26;20320;-63
2024/04/08 07:53:12;;;;;;;10.18;2.50;;;21.20;99.90;;;;;;5407977;26;20348;-63
2024/04/08 07:55:58;;;;;;;8.37;2.23;;;21.20;99.90;;;;;;5400566;26;20097;-64
2024/04/08 07:58:46;;;;;;;11.95;2.40;;;21.60;99.30;;;;;;5406205;26;20149;-64
2024/04/08 08:01:32;;;;;;;12.43;2.20;;;22.10;96.70;;;;;;5402191;26;20018;-64
2024/04/08 08:04:18;;;;;;;12.95;2.40;;;22.30;94.10;;;;;;5408889;26;20008;-64
2024/04/08 08:07:04;;;;;;;15.43;2.00;;;23.20;93.50;;;;;;5404017;26;20429;-64
2024/04/08 08:09:50;;;;;;;12.07;2.20;;;23.80;93.00;;;;;;5402760;26;20007;-64
2024/04/08 08:12:36;;;;;;;9.13;2.90;;;24.30;92.50;;;;;;5404017;26;20446;-64
2024/04/08 08:15:21;;;;;;;6.38;2.20;;;24.50;90.00;;;;;;5405944;26;20014;-64
2024/04/08 08:18:07;;;;;;;15.60;2.38;;;24.40;90.00;;;;;;5407166;26;20475;-64
2024/04/08 08:20:54;;;;;;;10.05;2.20;;;24.60;87.40;;;;;;5397589;26;20506;-64
2024/04/08 08:23:40;;;;;;;8.82;2.08;;;24.90;88.30;;;;;;5403937;26;20009;-64
2024/04/08 08:26:29;;;;;;;8.87;1.83;;;25.10;84.10;;;;;;5403086;26;20012;-64
2024/04/08 08:29:16;;;;;;;5.32;1.75;;;25.30;82.80;;;;;;5402518;26;20007;-64
2024/04/08 08:32:02;;;;;;;6.85;1.85;;;25.20;84.70;;;;;;5396891;26;20101;-64
2024/04/08 08:34:48;;;;;;;11.52;1.90;;;25.30;82.70;;;;;;5404658;26;19995;-63
2024/04/08 08:37:34;;;;;;;6.25;1.75;;;24.80;83.00;;;;;;5403212;26;20462;-63
2024/04/08 08:40:20;;;;;;;9.23;1.80;;;23.80;84.50;;;;;;5403806;26;20010;-63
2024/04/08 08:43:08;;;;;;;10.07;2.30;;;22.80;88.70;;;;;;5403561;26;19995;-63
2024/04/08 08:45:54;;;;;;;15.23;1.95;;;22.20;92.00;;;;;;5405634;26;20010;-63
2024/04/08 08:48:42;;;;;;;14.95;1.98;;;22.00;93.30;;;;;;5403236;26;19995;-63
2024/04/08 08:51:30;;;;;;;10.02;1.90;;;21.70;94.50;;;;;;5398025;26;20014;-63
2024/04/08 08:54:16;;;;;;;13.20;2.00;;;21.40;94.60;;;;;;5402046;26;19996;-63
2024/04/08 08:57:02;;;;;;;14.23;2.17;;;21.10;94.90;;;;;;5405219;26;20455;-63
2024/04/08 08:59:50;;;;;;;;;;;21.10;95.40;;;;;;5404309;26;20457;-63
2024/04/08 09:02:36;;;;;;;7.13;1.70;;;21.00;95.20;;;;;;5400576;26;19931;-63
2024/04/08 09:05:23;;;;;;;10.93;2.05;;;21.10;97.00;;;;;;5403467;26;20003;-63
2024/04/08 09:08:10;;;;;;;12.70;2.60;;;21.00;93.60;;;;;;5406180;26;20015;-63
2024/04/08 09:10:57;;;;;;;12.52;2.03;;;21.10;98.20;;;;;;5398422;26;20069;-63
2024/04/08 09:13:43;;;;;;;9.73;2.22;;;21.10;95.40;;;;;;5403021;26;20556;-63
2024/04/08 09:16:29;;;;;;;14.27;2.47;;;21.10;95.80;;;;;;5403157;26;19999;-63
2024/04/08 09:19:15;;;;;;;9.00;1.75;;;21.00;94.60;;;;;;5404663;26;20195;-63
2024/04/08 09:22:01;;;;;;;9.60;2.63;;;21.10;96.70;;;;;;5395027;26;20232;-63
2024/04/08 09:24:47;;;;;;;9.85;2.30;;;21.10;93.90;;;;;;5401863;26;19996;-63
2024/04/08 09:27:34;;;;;;;12.82;2.17;;;21.10;95.50;;;;;;5400735;26;19995;-63
2024/04/08 09:30:20;;;;;;;23.02;4.72;;;21.10;96.80;;;;;;5400742;26;20459;-63
2024/04/08 09:33:09;;;;;;;6.37;2.00;;;21.30;96.20;;;;;;5401598;26;20035;-63
2024/04/08 09:35:55;;;;;;;9.82;1.95;;;21.40;98.30;;;;;;5406106;26;20003;-63
2024/04/08 09:38:43;;;;;;;12.45;2.30;;;21.30;95.80;;;;;;5404607;26;19995;-63
2024/04/08 09:41:29;;;;;;;17.42;2.97;;;21.40;95.20;;;;;;5400874;26;20227;-63
2024/04/08 09:44:17;;;;;;;14.27;3.05;;;21.40;96.60;;;;;;5397455;26;20632;-63
2024/04/08 09:47:04;;;;;;;12.50;2.47;;;21.60;95.70;;;;;;5401530;26;20026;-63
2024/04/08 09:49:53;;;;;;;8.57;2.33;;;21.60;95.60;;;;;;5396345;26;19996;-63
2024/04/08 09:52:39;;;;;;;8.57;2.20;;;21.60;97.70;;;;;;5390710;26;20027;-64
2024/04/08 09:55:29;;;;;;;13.85;2.35;;;21.50;96.60;;;;;;5392719;26;20407;-64
2024/04/08 09:58:18;;;;;;;11.07;2.80;;;21.60;97.80;;;;;;5391404;26;20396;-65
2024/04/08 10:01:04;;;;;;;15.55;2.42;;;21.60;94.90;;;;;;5379545;26;20026;-63
2024/04/08 10:03:54;;;;;;;11.63;2.88;;;21.50;94.90;;;;;;5401995;26;20404;-61
2024/04/08 10:06:41;;;;;;;9.35;2.53;;;21.50;95.60;;;;;;5382789;26;20014;-63
2024/04/08 10:09:27;;;;;;;16.40;2.95;;;21.70;96.80;;;;;;5403661;26;20519;-61
2024/04/08 10:12:13;;;;;;;22.60;2.83;;;21.60;94.80;;;;;;5404238;26;19999;-63
2024/04/08 10:15:13;;;;;;;13.80;2.28;;;21.80;96.40;;;;;;5404256;26;20551;-63
2024/04/08 10:17:59;;;;;;;10.05;2.20;;;21.90;93.90;;;;;;5394309;26;20664;-64
2024/04/08 10:20:45;;;;;;;19.13;2.83;;;21.90;96.40;;;;;;5393987;26;20055;-64
2024/04/08 10:23:31;;;;;;;11.53;2.50;;;21.90;95.90;;;;;;5400813;26;19995;-63
2024/04/08 10:26:17;;;;;;;21.02;2.53;;;22.00;95.20;;;;;;5396808;26;20479;-63
2024/04/08 10:29:05;;;;;;;18.27;3.28;;;21.90;93.50;;;;;;5397855;26;20000;-63
2024/04/08 10:31:51;;;;;;;7.18;1.88;;;22.00;92.70;;;;;;5399353;26;20003;-62
2024/04/08 10:34:37;;;;;;;16.92;2.95;;;22.10;94.70;;;;;;5403495;26;20080;-63
2024/04/08 10:37:23;;;;;;;14.07;2.58;;;22.10;94.30;;;;;;5403333;26;20014;-62
2024/04/08 10:40:11;;;;;;;13.77;3.13;;;22.30;94.10;;;;;;5403339;26;19996;-62
2024/04/08 10:42:57;;;;;;;16.10;2.75;;;22.30;93.20;;;;;;5398975;26;20003;-62
2024/04/08 10:45:43;;;;;;;9.77;2.55;;;22.30;93.70;;;;;;5399052;26;20000;-63
2024/04/08 10:48:31;;;;;;;19.65;2.55;;;22.20;91.60;;;;;;5398408;26;20365;-62
2024/04/08 10:51:17;;;;;;;11.43;1.77;;;22.20;91.60;;;;;;5398928;26;19999;-63
2024/04/08 10:54:03;;;;;;;12.88;2.60;;;22.10;92.10;;;;;;5401169;26;19995;-63
2024/04/08 10:56:49;;;;;;;10.90;3.13;;;22.10;91.60;;;;;;5400590;26;19999;-62
2024/04/08 10:59:35;;;;;;;11.32;2.28;;;22.20;90.90;;;;;;5401795;26;20018;-63
2024/04/08 11:02:21;;;;;;;17.37;2.77;;;22.10;91.50;;;;;;5401627;26;20340;-64
2024/04/08 11:05:09;;;;;;;13.43;2.60;;;22.10;91.00;;;;;;5402635;26;20018;-63
2024/04/08 11:07:58;;;;;;;15.00;2.42;;;22.00;91.30;;;;;;5401972;26;19999;-63
2024/04/08 11:10:47;;;;;;;12.38;2.70;;;21.80;92.10;;;;;;5399964;26;20013;-63
2024/04/08 11:13:33;;;;;;;15.50;2.50;;;21.90;92.40;;;;;;5400915;26;20032;-63
2024/04/08 11:16:19;;;;;;;16.33;2.92;;;21.90;91.70;;;;;;5404596;26;20024;-63
2024/04/08 11:19:06;;;;;;;11.88;2.00;;;22.00;91.80;;;;;;5401352;26;20007;-63
2024/04/08 11:21:51;;;;;;;8.65;2.45;;;22.10;93.30;;;;;;5397265;26;19991;-63
2024/04/08 11:24:41;;;;;;;10.50;2.40;;;22.10;91.90;;;;;;5399471;26;20015;-63
2024/04/08 11:27:27;;;;;;;9.88;2.47;;;22.00;90.70;;;;;;5397340;26;20283;-63
2024/04/08 11:30:15;;;;;;;17.57;2.37;;;22.00;90.80;;;;;;5393112;26;20442;-63
2024/04/08 11:33:02;;;;;;;18.75;2.65;;;22.20;92.00;;;;;;5396766;26;20014;-63
2024/04/08 11:35:48;;;;;;;20.80;3.65;;;22.30;90.40;;;;;;5402740;26;20004;-63
2024/04/08 11:38:34;;;;;;;16.07;2.57;;;22.50;91.30;;;;;;5399877;26;20012;-63
2024/04/08 11:41:20;;;;;;;11.25;3.55;;;22.60;90.50;;;;;;5397184;26;20014;-63
2024/04/08 11:44:06;;;;;;;18.30;3.35;;;22.70;89.60;;;;;;5402539;26;20000;-63
2024/04/08 11:46:52;;;;;;;18.52;2.72;;;22.60;85.50;;;;;;5401449;26;20059;-63
2024/04/08 11:49:37;;;;;;;14.10;2.85;;;22.60;87.80;;;;;;5400433;26;20003;-63
2024/04/08 11:52:24;;;;;;;26.33;3.00;;;22.70;90.50;;;;;;5401588;26;20010;-63
2024/04/08 11:55:10;;;;;;;17.92;2.72;;;22.70;90.20;;;;;;5401413;26;20096;-64
2024/04/08 11:57:56;;;;;;;18.00;4.15;;;22.60;87.80;;;;;;5389936;26;20003;-63
2024/04/08 12:00:42;;;;;;;16.30;3.38;;;22.40;87.90;;;;;;5394788;26;20301;-63
2024/04/08 12:03:28;;;;;;;24.03;3.13;;;22.50;88.90;;;;;;5401897;26;20011;-65
2024/04/08 12:06:15;;;;;;;15.45;3.38;;;22.40;88.10;;;;;;5397043;26;20054;-63
2024/04/08 12:09:00;;;;;;;28.27;3.80;;;22.40;88.70;;;;;;5402404;26;20010;-62
2024/04/08 12:11:46;;;;;;;14.43;3.50;;;22.30;90.00;;;;;;5397561;26;19995;-62
2024/04/08 12:14:33;;;;;;;19.30;3.83;;;22.20;88.20;;;;;;5400320;26;19996;-63
2024/04/08 12:17:18;;;;;;;18.33;3.88;;;22.20;88.20;;;;;;5402054;26;20000;-62
2024/04/08 12:20:05;;;;;;;15.25;3.47;;;22.30;88.30;;;;;;5400863;26;20014;-62
2024/04/08 12:22:51;;;;;;;16.63;3.58;;;22.30;88.60;;;;;;5400816;26;20611;-62
2024/04/08 12:25:38;;;;;;;19.60;3.60;;;22.60;88.00;;;;;;5404966;26;21644;-63
2024/04/08 12:28:24;;;;;;;21.90;4.20;;;22.70;87.30;;;;;;5402057;26;20013;-63
2024/04/08 12:31:09;;;;;;;18.33;3.85;;;22.80;83.00;;;;;;5394765;26;20579;-64
2024/04/08 12:33:55;;;;;;;32.72;5.47;;;22.80;87.10;;;;;;5390745;26;20003;-63
2024/04/08 12:36:41;;;;;;;16.23;3.63;;;22.80;85.30;;;;;;5398962;26;20007;-63
2024/04/08 12:39:27;;;;;;;26.33;3.37;;;22.70;85.30;;;;;;5390839;26;20004;-63
2024/04/08 12:42:13;;;;;;;21.02;3.63;;;22.60;83.40;;;;;;5404305;26;20014;-63
2024/04/08 12:44:59;;;;;;;14.93;2.90;;;22.70;84.20;;;;;;5407122;26;20530;-63
2024/04/08 12:47:45;;;;;;;21.20;3.15;;;22.60;84.80;;;;;;5404013;26;19995;-63
2024/04/08 12:50:31;;;;;;;20.67;3.30;;;22.60;85.40;;;;;;5382516;21;20008;-63
2024/04/08 12:53:19;;;;;;;17.27;3.40;;;22.60;85.90;;;;;;5371037;26;20257;-63
2024/04/08 12:56:09;;;;;;;18.08;4.15;;;22.70;83.10;;;;;;5377004;26;20028;-63
2024/04/08 12:58:58;;;;;;;25.55;3.35;;;22.80;83.40;;;;;;5372673;26;20008;-63
2024/04/08 13:01:44;;;;;;;29.42;4.32;;;22.80;84.20;;;;;;5345041;26;20070;-63
2024/04/08 13:04:30;;;;;;;29.10;3.63;;;22.80;83.30;;;;;;5334050;26;20954;-63
2024/04/08 13:07:16;;;;;;;17.67;3.67;;;22.70;81.50;;;;;;5336641;26;20040;-63
2024/04/08 13:10:02;;;;;;;20.33;3.77;;;22.80;82.40;;;;;;5332285;26;20442;-63
2024/04/08 13:12:48;;;;;;;16.42;3.17;;;22.80;81.20;;;;;;5336909;26;20005;-63
2024/04/08 13:15:34;;;;;;;27.55;3.38;;;22.90;82.50;;;;;;5329431;26;20016;-63
2024/04/08 13:18:20;;;;;;;22.73;4.82;;;22.90;80.30;;;;;;5336258;26;19997;-63
2024/04/08 13:21:05;;;;;;;28.35;3.80;;;23.00;83.10;;;;;;5337839;26;20036;-63
2024/04/08 13:23:52;;;;;;;23.30;3.50;;;23.10;80.50;;;;;;5333993;26;20017;-63
2024/04/08 13:26:42;;;;;;;30.48;5.15;;;23.00;81.50;;;;;;5340191;26;20338;-63
2024/04/08 13:29:28;;;;;;;29.15;4.40;;;22.90;79.80;;;;;;5331532;26;19993;-63
2024/04/08 13:32:15;;;;;;;26.27;4.13;;;22.80;80.90;;;;;;5370135;26;20012;-63
2024/04/08 13:35:02;;;;;;;;;;;22.70;79.70;;;;;;5374949;26;20027;-63
2024/04/08 13:37:47;;;;;;;32.38;5.15;;;22.60;79.10;;;;;;5372133;26;20027;-64
2024/04/08 13:40:33;;;;;;;20.60;4.38;;;22.50;82.60;;;;;;5366218;26;20537;-63
2024/04/08 13:43:19;;;;;;;28.60;4.28;;;22.60;83.10;;;;;;5372184;26;20070;-63
2024/04/08 13:46:05;;;;;;;25.40;4.45;;;22.60;83.20;;;;;;5368394;26;20097;-63
2024/04/08 13:48:51;;;;;;;27.85;5.20;;;22.70;83.10;;;;;;5364850;26;20514;-63
2024/04/08 13:51:37;;;;;;;28.83;4.77;;;22.70;83.90;;;;;;5368594;26;20011;-63
2024/04/08 13:54:26;;;;;;;19.38;3.42;;;22.60;80.10;;;;;;5370876;26;20222;-63
2024/04/08 13:57:12;;;;;;;20.67;4.13;;;22.60;81.30;;;;;;5371227;26;20272;-63
2024/04/08 13:59:59;;;;;;;16.80;3.83;;;22.50;81.10;;;;;;5365969;26;19996;-63
2024/04/08 14:02:46;;;;;;;26.70;4.35;;;22.40;80.30;;;;;;5340333;26;20007;-63
2024/04/08 14:05:31;;;;;;;20.52;3.85;;;22.40;83.00;;;;;;5339507;26;19996;-63
2024/04/08 14:08:17;;;;;;;22.20;3.13;;;22.50;80.70;;;;;;5336462;26;20449;-64
2024/04/08 14:11:03;;;;;;;23.23;4.70;;;22.50;81.30;;;;;;5337964;26;19997;-64
2024/04/08 14:13:49;;;;;;;18.93;5.03;;;22.50;81.10;;;;;;5336363;26;20020;-64
2024/04/08 14:16:35;;;;;;;29.15;4.78;;;22.40;81.60;;;;;;5342222;26;19995;-64
2024/04/08 14:19:21;;;;;;;20.65;3.95;;;22.30;82.70;;;;;;5334449;26;20005;-64
2024/04/08 14:22:07;;;;;;;29.23;3.97;;;22.30;83.00;;;;;;5341306;26;20040;-64